createdAt,value
2018-11-20T00:00:24.810Z,73.67
2018-11-20T00:02:57.324Z,74.46
2018-11-20T00:05:29.911Z,74.25
2018-11-20T00:08:02.900Z,74.72
2018-11-20T00:10:38.581Z,74.54
2018-11-20T00:13:19.373Z,74.79
2018-11-20T00:16:54.976Z,74.31
2018-11-20T00:19:27.850Z,74.89
2018-11-20T00:22:03.290Z,74.35
2018-11-20T00:25:34.102Z,74.74
2018-11-20T00:28:09.634Z,75.08
2018-11-20T00:30:45.405Z,74.97
2018-11-20T00:33:17.014Z,75.19
2018-11-20T00:35:51.576Z,73.94
2018-11-20T00:38:26.061Z,73.79
2018-11-20T00:41:01.631Z,73.88
2018-11-20T00:43:34.337Z,73.86
2018-11-20T00:46:05.978Z,73.62
2018-11-20T00:48:38.937Z,73.58
2018-11-20T00:51:12.486Z,74.05
2018-11-20T00:53:45.417Z,74.33
2018-11-20T00:56:35.234Z,74.09
2018-11-20T00:59:08.071Z,73.65
2018-11-20T01:01:41.041Z,74.34
2018-11-20T01:04:14.038Z,74.17
2018-11-20T01:06:47.699Z,74.24
2018-11-20T01:09:27.217Z,74.61
2018-11-20T01:12:00.777Z,74.50
2018-11-20T01:14:41.549Z,73.89
2018-11-20T01:17:20.273Z,74.28
2018-11-20T01:19:54.810Z,73.33
2018-11-20T01:22:27.617Z,74.14
2018-11-20T01:25:00.121Z,74.56
2018-11-20T01:27:34.793Z,74.12
2018-11-20T01:30:07.661Z,73.46
2018-11-20T01:32:49.482Z,73.87
2018-11-20T01:36:23.313Z,73.62
2018-11-20T01:38:56.252Z,73.96
2018-11-20T01:41:29.929Z,72.92
2018-11-20T01:44:01.506Z,74.03
2018-11-20T01:46:34.155Z,74.06
2018-11-20T01:49:37.242Z,73.85
2018-11-20T01:52:08.886Z,73.08
2018-11-20T01:54:43.516Z,73.20
2018-11-20T01:57:15.244Z,73.57
2018-11-20T01:59:52.744Z,73.38
2018-11-20T02:04:33.437Z,74.19
2018-11-20T02:07:08.894Z,74.29
2018-11-20T02:09:43.580Z,74.01
2018-11-20T02:12:16.521Z,74.09
2018-11-20T02:14:50.144Z,74.50
2018-11-20T02:17:23.735Z,73.87
2018-11-20T02:19:55.362Z,73.02
2018-11-20T02:22:27.898Z,73.92
2018-11-20T02:25:00.537Z,73.12
2018-11-20T02:27:33.405Z,73.10
2018-11-20T02:30:06.159Z,73.69
2018-11-20T02:32:42.767Z,73.31
2018-11-20T02:36:13.495Z,73.77
2018-11-20T02:38:49.019Z,73.68
2018-11-20T02:41:25.602Z,73.73
2018-11-20T02:43:58.241Z,74.04
2018-11-20T02:46:31.945Z,73.70
2018-11-20T02:49:05.553Z,74.14
2018-11-20T02:51:39.095Z,74.48
2018-11-20T02:54:11.898Z,73.65
2018-11-20T02:58:49.613Z,74.53
2018-11-20T03:01:24.120Z,73.76
2018-11-20T03:03:57.775Z,73.24
2018-11-20T03:06:32.246Z,73.97
2018-11-20T03:11:14.253Z,73.82
2018-11-20T03:13:47.785Z,73.36
2018-11-20T03:16:20.561Z,73.11
2018-11-20T03:18:55.069Z,73.20
2018-11-20T03:21:29.693Z,73.50
2018-11-20T03:24:02.624Z,73.65
2018-11-20T03:26:34.252Z,73.77
2018-11-20T03:29:11.826Z,72.58
2018-11-20T03:31:44.717Z,72.80
2018-11-20T03:34:16.342Z,72.89
2018-11-20T03:37:08.010Z,73.06
2018-11-20T03:39:39.654Z,72.11
2018-11-20T03:42:13.169Z,72.54
2018-11-20T03:44:49.784Z,71.44
2018-11-20T03:47:26.422Z,72.31
2018-11-20T03:49:59.860Z,72.55
2018-11-20T03:52:34.397Z,72.73
2018-11-20T03:55:10.951Z,72.29
2018-11-20T03:57:43.850Z,72.22
2018-11-20T04:00:21.492Z,72.22
2018-11-20T04:02:57.162Z,72.34
2018-11-20T04:06:00.207Z,72.01
2018-11-20T04:08:37.773Z,72.07
2018-11-20T04:11:10.610Z,72.08
2018-11-20T04:14:42.332Z,72.15
2018-11-20T04:17:15.070Z,71.84
2018-11-20T04:19:47.973Z,72.02
2018-11-20T04:22:20.860Z,71.67
2018-11-20T04:26:59.750Z,71.67
2018-11-20T04:29:33.315Z,72.03
2018-11-20T04:32:07.890Z,71.80
2018-11-20T04:34:40.340Z,72.08
2018-11-20T04:37:11.968Z,71.93
2018-11-20T04:39:44.793Z,71.66
2018-11-20T04:42:17.592Z,71.67
2018-11-20T04:44:51.270Z,72.11
2018-11-20T04:48:25.021Z,71.88
2018-11-20T04:51:02.561Z,71.98
2018-11-20T04:53:34.990Z,72.28
2018-11-20T04:56:07.745Z,71.68
2018-11-20T04:58:41.381Z,71.62
2018-11-20T05:01:20.067Z,71.47
2018-11-20T05:03:57.761Z,71.56
2018-11-20T05:08:34.398Z,72.04
2018-11-20T05:11:06.034Z,71.90
2018-11-20T05:13:43.546Z,72.09
2018-11-20T05:16:16.486Z,72.27
2018-11-20T05:18:49.411Z,71.81
2018-11-20T05:21:21.037Z,72.20
2018-11-20T05:23:53.934Z,72.40
2018-11-20T05:26:28.385Z,71.85
2018-11-20T05:29:01.058Z,72.05
2018-11-20T05:31:36.650Z,72.30
2018-11-20T05:34:11.135Z,72.43
2018-11-20T05:36:55.954Z,71.96
2018-11-20T05:39:28.582Z,73.01
2018-11-20T05:42:06.330Z,72.00
2018-11-20T05:44:39.291Z,71.99
2018-11-20T05:47:12.005Z,71.71
2018-11-20T05:49:44.828Z,71.82
2018-11-20T05:52:17.545Z,72.46
2018-11-20T05:54:51.053Z,71.24
2018-11-20T05:57:23.845Z,72.83
2018-11-20T05:59:57.425Z,72.40
2018-11-20T06:02:31.988Z,72.11
2018-11-20T06:05:06.604Z,71.91
2018-11-20T06:07:39.133Z,71.54
2018-11-20T06:10:10.763Z,71.74
2018-11-20T06:14:51.581Z,72.00
2018-11-20T06:17:24.417Z,72.15
2018-11-20T06:20:08.099Z,72.14
2018-11-20T06:22:42.649Z,72.01
2018-11-20T06:25:15.152Z,71.98
2018-11-20T06:27:47.808Z,71.82
2018-11-20T06:30:53.850Z,72.35
2018-11-20T06:33:28.360Z,72.33
2018-11-20T06:36:01.199Z,71.82
2018-11-20T06:38:33.637Z,71.30
2018-11-20T06:41:14.447Z,71.24
2018-11-20T06:44:50.264Z,71.64
2018-11-20T06:47:23.008Z,71.46
2018-11-20T06:49:55.630Z,71.37
2018-11-20T06:52:30.142Z,71.10
2018-11-20T06:55:03.035Z,70.72
2018-11-20T06:59:39.639Z,71.05
2018-11-20T07:02:12.073Z,71.12
2018-11-20T07:04:44.805Z,70.64
2018-11-20T07:07:17.686Z,70.50
2018-11-20T07:09:51.154Z,70.95
2018-11-20T07:12:22.789Z,70.66
2018-11-20T07:14:55.542Z,70.16
2018-11-20T07:17:33.020Z,70.40
2018-11-20T07:20:05.905Z,70.92
2018-11-20T07:22:57.615Z,70.54
2018-11-20T07:25:30.387Z,71.03
2018-11-20T07:28:03.901Z,70.79
2018-11-20T07:30:35.550Z,70.78
2018-11-20T07:33:09.050Z,70.76
2018-11-20T07:35:56.699Z,71.34
2018-11-20T07:38:28.330Z,70.77
2018-11-20T07:40:59.954Z,71.07
2018-11-20T07:43:35.500Z,71.01
2018-11-20T07:46:09.942Z,71.07
2018-11-20T07:48:47.753Z,71.60
2018-11-20T07:51:20.553Z,71.40
2018-11-20T07:53:56.061Z,71.17
2018-11-20T07:56:35.683Z,71.20
2018-11-20T07:59:08.338Z,71.29
2018-11-20T08:01:41.883Z,71.44
2018-11-20T08:04:13.538Z,70.82
2018-11-20T08:08:52.979Z,70.92
2018-11-20T08:11:24.611Z,71.22
2018-11-20T08:13:59.177Z,70.91
2018-11-20T08:16:33.735Z,71.15
2018-11-20T08:19:07.398Z,71.29
2018-11-20T08:21:55.172Z,70.56
2018-11-20T08:24:28.090Z,71.07
2018-11-20T08:27:01.100Z,70.79
2018-11-20T08:29:32.742Z,71.04
2018-11-20T08:32:08.211Z,70.85
2018-11-20T08:34:41.161Z,70.94
2018-11-20T08:38:18.880Z,70.47
2018-11-20T08:40:51.745Z,70.64
2018-11-20T08:43:27.413Z,70.03
2018-11-20T08:46:04.026Z,70.44
2018-11-20T08:48:37.542Z,70.19
2018-11-20T08:51:10.337Z,70.10
2018-11-20T08:53:41.979Z,70.80
2018-11-20T08:56:15.586Z,71.22
2018-11-20T08:58:48.221Z,70.47
2018-11-20T09:01:27.988Z,70.11
2018-11-20T09:04:05.474Z,70.42
2018-11-20T09:06:41.018Z,70.12
2018-11-20T09:09:15.549Z,69.94
2018-11-20T09:11:48.361Z,70.26
2018-11-20T09:14:21.221Z,70.27
2018-11-20T09:16:54.054Z,70.02
2018-11-20T09:19:31.786Z,69.85
2018-11-20T09:22:05.212Z,70.56
2018-11-20T09:24:38.153Z,69.65
2018-11-20T09:28:08.701Z,69.97
2018-11-20T09:30:41.393Z,69.71
2018-11-20T09:33:13.071Z,69.94
2018-11-20T09:35:45.871Z,69.85
2018-11-20T09:38:19.362Z,69.58
2018-11-20T09:40:50.997Z,69.41
2018-11-20T09:44:22.429Z,69.45
2018-11-20T09:46:55.133Z,69.18
2018-11-20T09:49:27.918Z,69.98
2018-11-20T09:52:03.602Z,69.58
2018-11-20T09:56:43.229Z,69.23
2018-11-20T09:59:16.806Z,69.59
2018-11-20T10:01:56.428Z,69.10
2018-11-20T10:05:30.921Z,69.61
2018-11-20T10:08:03.805Z,69.89
2018-11-20T10:10:36.730Z,70.37
2018-11-20T10:13:09.351Z,69.17
2018-11-20T10:15:42.985Z,69.51
2018-11-20T10:18:27.802Z,69.75
2018-11-20T10:21:00.292Z,69.39
2018-11-20T10:23:37.903Z,68.95
2018-11-20T10:26:11.533Z,69.39
2018-11-20T10:29:10.554Z,68.94
2018-11-20T10:31:43.405Z,69.52
2018-11-20T10:34:19.229Z,68.71
2018-11-20T10:36:54.690Z,68.81
2018-11-20T10:39:30.313Z,68.94
2018-11-20T10:42:03.021Z,68.47
2018-11-20T10:44:40.559Z,69.14
2018-11-20T10:47:15.126Z,69.13
2018-11-20T10:49:49.773Z,68.91
2018-11-20T10:52:22.475Z,68.45
2018-11-20T10:54:57.054Z,68.31
2018-11-20T10:57:32.585Z,68.51
2018-11-20T11:00:11.199Z,69.06
2018-11-20T11:02:44.053Z,68.74
2018-11-20T11:05:16.972Z,68.67
2018-11-20T11:07:49.990Z,68.54
2018-11-20T11:10:23.479Z,69.11
2018-11-20T11:12:56.341Z,68.45
2018-11-20T11:15:39.149Z,68.73
2018-11-20T11:18:12.148Z,68.83
2018-11-20T11:20:45.102Z,68.74
2018-11-20T11:23:18.111Z,68.76
2018-11-20T11:25:52.790Z,68.84
2018-11-20T11:28:32.423Z,68.83
2018-11-20T11:31:07.046Z,68.06
2018-11-20T11:33:38.669Z,67.92
2018-11-20T11:36:16.251Z,68.31
2018-11-20T11:38:50.810Z,67.33
2018-11-20T11:41:26.358Z,67.69
2018-11-20T11:43:59.161Z,67.76
2018-11-20T11:46:31.915Z,67.64
2018-11-20T11:49:37.979Z,67.49
2018-11-20T11:52:13.685Z,67.75
2018-11-20T11:54:45.439Z,68.08
2018-11-20T11:57:18.104Z,67.38
2018-11-20T11:59:51.067Z,67.69
